sensor_id;sensor_type;location;lat;lon;timestamp;pressure;altitude;pressure_sealevel;temperature;humidity
3668;BME280;24099;47.102;15.440;2023-03-14T00:01:31;95872.63;;;5.10;100.00
3668;BME280;24099;47.102;15.440;2023-03-14T00:03:59;95874.97;;;5.05;100.00
3668;BME280;24099;47.102;15.440;2023-03-14T00:06:27;95862.84;;;5.12;100.00
3668;BME280;24099;47.102;15.440;2023-03-14T00:08:55;95865.81;;;4.94;100.00
3668;BME280;24099;47.102;15.440;2023-03-14T00:11:22;95860.84;;;4.84;100.00
3668;BME280;24099;47.102;15.440;2023-03-14T00:13:50;95862.00;;;4.67;100.00
3668;BME280;24099;47.102;15.440;2023-03-14T00:16:20;95852.38;;;4.82;100.00
3668;BME280;24099;47.102;15.440;2023-03-14T00:18:48;95855.50;;;4.63;100.00
3668;BME280;24099;47.102;15.440;2023-03-14T00:21:18;95870.69;;;4.60;100.00
3668;BME280;24099;47.102;15.440;2023-03-14T00:23:46;95856.66;;;4.61;100.00
3668;BME280;24099;47.102;15.440;2023-03-14T00:26:15;95853.53;;;4.65;100.00
3668;BME280;24099;47.102;15.440;2023-03-14T00:28:43;95853.16;;;4.54;100.00
3668;BME280;24099;47.102;15.440;2023-03-14T00:31:13;95856.47;;;4.47;100.00
3668;BME280;24099;47.102;15.440;2023-03-14T00:33:44;95850.00;;;4.21;100.00
3668;BME280;24099;47.102;15.440;2023-03-14T00:36:14;95843.66;;;4.23;100.00
3668;BME280;24099;47.102;15.440;2023-03-14T00:38:46;95836.91;;;4.14;100.00
3668;BME280;24099;47.102;15.440;2023-03-14T00:41:16;95845.81;;;4.20;100.00
3668;BME280;24099;47.102;15.440;2023-03-14T00:43:46;95855.47;;;4.34;100.00
3668;BME280;24099;47.102;15.440;2023-03-14T00:46:14;95873.09;;;4.46;100.00
3668;BME280;24099;47.102;15.440;2023-03-14T00:48:45;95861.38;;;4.42;100.00
3668;BME280;24099;47.102;15.440;2023-03-14T00:51:13;95864.28;;;4.47;100.00
3668;BME280;24099;47.102;15.440;2023-03-14T00:53:44;95855.31;;;4.50;100.00
3668;BME280;24099;47.102;15.440;2023-03-14T00:56:13;95853.44;;;4.21;100.00
3668;BME280;24099;47.102;15.440;2023-03-14T00:58:41;95843.97;;;4.43;100.00
3668;BME280;24099;47.102;15.440;2023-03-14T01:01:13;95830.31;;;4.41;100.00
3668;BME280;24099;47.102;15.440;2023-03-14T01:03:51;95822.25;;;4.36;100.00
3668;BME280;24099;47.102;15.440;2023-03-14T01:06:24;95819.47;;;4.37;100.00
3668;BME280;24099;47.102;15.440;2023-03-14T01:08:56;95804.03;;;4.65;100.00
3668;BME280;24099;47.102;15.440;2023-03-14T01:11:32;95777.00;;;4.96;100.00
3668;BME280;24099;47.102;15.440;2023-03-14T01:14:00;95752.50;;;5.11;100.00
3668;BME280;24099;47.102;15.440;2023-03-14T01:16:31;95756.97;;;5.32;100.00
3668;BME280;24099;47.102;15.440;2023-03-14T01:19:03;95744.50;;;5.49;100.00
3668;BME280;24099;47.102;15.440;2023-03-14T01:21:32;95726.91;;;5.58;100.00
3668;BME280;24099;47.102;15.440;2023-03-14T01:24:01;95720.19;;;5.27;100.00
3668;BME280;24099;47.102;15.440;2023-03-14T01:26:33;95714.78;;;5.29;100.00
3668;BME280;24099;47.102;15.440;2023-03-14T01:29:02;95717.09;;;5.38;100.00
3668;BME280;24099;47.102;15.440;2023-03-14T01:31:32;95715.28;;;5.03;100.00
3668;BME280;24099;47.102;15.440;2023-03-14T01:34:02;95714.38;;;5.10;100.00
3668;BME280;24099;47.102;15.440;2023-03-14T01:36:30;95707.31;;;5.26;100.00
3668;BME280;24099;47.102;15.440;2023-03-14T01:38:59;95705.13;;;5.08;100.00
3668;BME280;24099;47.102;15.440;2023-03-14T01:41:30;95708.50;;;4.87;100.00
3668;BME280;24099;47.102;15.440;2023-03-14T01:44:02;95704.28;;;4.71;100.00
3668;BME280;24099;47.102;15.440;2023-03-14T01:46:38;95714.63;;;4.79;100.00
3668;BME280;24099;47.102;15.440;2023-03-14T01:49:16;95712.47;;;4.68;100.00
3668;BME280;24099;47.102;15.440;2023-03-14T01:51:55;95698.81;;;4.52;100.00
3668;BME280;24099;47.102;15.440;2023-03-14T01:54:30;95710.97;;;4.59;100.00
3668;BME280;24099;47.102;15.440;2023-03-14T01:57:03;95698.44;;;4.40;100.00
3668;BME280;24099;47.102;15.440;2023-03-14T01:59:32;95707.25;;;4.24;100.00
3668;BME280;24099;47.102;15.440;2023-03-14T02:02:09;95714.28;;;4.53;100.00
3668;BME280;24099;47.102;15.440;2023-03-14T02:04:39;95736.19;;;4.44;100.00
3668;BME280;24099;47.102;15.440;2023-03-14T02:07:12;95723.16;;;4.29;100.00
3668;BME280;24099;47.102;15.440;2023-03-14T02:09:52;95712.94;;;4.57;100.00
3668;BME280;24099;47.102;15.440;2023-03-14T02:12:25;95719.06;;;5.00;100.00
3668;BME280;24099;47.102;15.440;2023-03-14T02:15:15;95714.88;;;4.99;100.00
3668;BME280;24099;47.102;15.440;2023-03-14T02:17:52;95722.81;;;4.76;100.00
3668;BME280;24099;47.102;15.440;2023-03-14T02:20:45;95704.38;;;4.78;100.00
3668;BME280;24099;47.102;15.440;2023-03-14T02:23:20;95708.34;;;4.59;100.00
3668;BME280;24099;47.102;15.440;2023-03-14T02:25:55;95721.81;;;4.63;100.00
3668;BME280;24099;47.102;15.440;2023-03-14T02:28:27;95712.09;;;4.42;100.00
3668;BME280;24099;47.102;15.440;2023-03-14T02:31:14;95696.38;;;4.65;100.00
3668;BME280;24099;47.102;15.440;2023-03-14T02:33:42;95696.41;;;4.35;100.00
3668;BME280;24099;47.102;15.440;2023-03-14T02:36:13;95701.59;;;4.21;100.00
3668;BME280;24099;47.102;15.440;2023-03-14T02:38:46;95699.63;;;4.23;100.00
3668;BME280;24099;47.102;15.440;2023-03-14T02:41:18;95717.94;;;4.14;100.00
3668;BME280;24099;47.102;15.440;2023-03-14T02:44:00;95706.72;;;3.99;100.00
3668;BME280;24099;47.102;15.440;2023-03-14T02:46:31;95697.00;;;4.08;100.00
3668;BME280;24099;47.102;15.440;2023-03-14T02:49:03;95701.41;;;4.07;100.00
3668;BME280;24099;47.102;15.440;2023-03-14T02:51:32;95682.38;;;4.22;100.00
3668;BME280;24099;47.102;15.440;2023-03-14T02:54:04;95689.38;;;4.06;100.00
3668;BME280;24099;47.102;15.440;2023-03-14T02:56:32;95694.69;;;4.57;100.00
3668;BME280;24099;47.102;15.440;2023-03-14T02:59:04;95704.56;;;4.18;100.00
3668;BME280;24099;47.102;15.440;2023-03-14T03:01:42;95711.28;;;3.97;100.00
3668;BME280;24099;47.102;15.440;2023-03-14T03:04:12;95689.19;;;4.23;100.00
3668;BME280;24099;47.102;15.440;2023-03-14T03:06:40;95691.00;;;4.07;100.00
3668;BME280;24099;47.102;15.440;2023-03-14T03:09:08;95688.59;;;4.35;100.00
3668;BME280;24099;47.102;15.440;2023-03-14T03:11:36;95685.69;;;4.01;100.00
3668;BME280;24099;47.102;15.440;2023-03-14T03:14:07;95697.28;;;3.98;100.00
3668;BME280;24099;47.102;15.440;2023-03-14T03:16:35;95712.91;;;3.98;100.00
3668;BME280;24099;47.102;15.440;2023-03-14T03:19:03;95706.16;;;4.04;100.00
3668;BME280;24099;47.102;15.440;2023-03-14T03:21:30;95700.09;;;3.74;100.00
3668;BME280;24099;47.102;15.440;2023-03-14T03:23:58;95701.38;;;3.78;100.00
3668;BME280;24099;47.102;15.440;2023-03-14T03:26:26;95690.63;;;3.96;100.00
3668;BME280;24099;47.102;15.440;2023-03-14T03:28:54;95707.28;;;3.87;100.00
3668;BME280;24099;47.102;15.440;2023-03-14T03:31:25;95721.00;;;4.18;100.00
3668;BME280;24099;47.102;15.440;2023-03-14T03:33:54;95716.84;;;4.09;100.00
3668;BME280;24099;47.102;15.440;2023-03-14T03:36:22;95714.56;;;3.76;100.00
3668;BME280;24099;47.102;15.440;2023-03-14T03:38:53;95703.53;;;3.89;100.00
3668;BME280;24099;47.102;15.440;2023-03-14T03:41:21;95700.66;;;3.84;100.00
3668;BME280;24099;47.102;15.440;2023-03-14T03:43:50;95703.59;;;3.81;100.00
3668;BME280;24099;47.102;15.440;2023-03-14T03:46:19;95725.63;;;3.56;100.00
3668;BME280;24099;47.102;15.440;2023-03-14T03:48:48;95726.97;;;3.89;100.00
3668;BME280;24099;47.102;15.440;2023-03-14T03:51:16;95731.38;;;3.66;100.00
3668;BME280;24099;47.102;15.440;2023-03-14T03:53:46;95725.50;;;3.87;100.00
3668;BME280;24099;47.102;15.440;2023-03-14T03:56:19;95739.19;;;3.66;100.00
3668;BME280;24099;47.102;15.440;2023-03-14T03:58:47;95732.59;;;3.78;100.00
3668;BME280;24099;47.102;15.440;2023-03-14T04:01:14;95724.25;;;3.83;100.00
3668;BME280;24099;47.102;15.440;2023-03-14T04:03:47;95750.28;;;3.60;100.00
3668;BME280;24099;47.102;15.440;2023-03-14T04:06:16;95753.13;;;3.73;100.00
3668;BME280;24099;47.102;15.440;2023-03-14T04:08:46;95738.78;;;3.77;100.00
3668;BME280;24099;47.102;15.440;2023-03-14T04:11:28;95742.41;;;3.68;100.00
3668;BME280;24099;47.102;15.440;2023-03-14T04:14:23;95746.06;;;3.59;100.00
3668;BME280;24099;47.102;15.440;2023-03-14T04:17:02;95763.81;;;3.78;100.00
3668;BME280;24099;47.102;15.440;2023-03-14T04:19:31;95762.28;;;3.61;100.00
3668;BME280;24099;47.102;15.440;2023-03-14T04:22:08;95765.78;;;3.53;100.00
3668;BME280;24099;47.102;15.440;2023-03-14T04:24:45;95774.31;;;3.62;100.00
3668;BME280;24099;47.102;15.440;2023-03-14T04:27:13;95755.38;;;3.53;100.00
3668;BME280;24099;47.102;15.440;2023-03-14T04:29:43;95760.09;;;3.50;100.00
3668;BME280;24099;47.102;15.440;2023-03-14T04:32:14;95748.81;;;3.80;100.00
3668;BME280;24099;47.102;15.440;2023-03-14T04:34:44;95758.63;;;3.78;100.00
3668;BME280;24099;47.102;15.440;2023-03-14T04:37:12;95750.75;;;4.01;100.00
3668;BME280;24099;47.102;15.440;2023-03-14T04:39:43;95721.31;;;4.00;100.00
3668;BME280;24099;47.102;15.440;2023-03-14T04:42:31;95750.34;;;4.12;100.00
3668;BME280;24099;47.102;15.440;2023-03-14T04:44:59;95743.47;;;4.34;100.00
3668;BME280;24099;47.102;15.440;2023-03-14T04:47:29;95725.41;;;4.47;100.00
3668;BME280;24099;47.102;15.440;2023-03-14T04:49:59;95722.16;;;4.60;100.00
3668;BME280;24099;47.102;15.440;2023-03-14T04:52:27;95723.34;;;4.72;100.00
3668;BME280;24099;47.102;15.440;2023-03-14T04:54:55;95733.59;;;4.73;100.00
3668;BME280;24099;47.102;15.440;2023-03-14T04:57:28;95705.56;;;4.75;100.00
3668;BME280;24099;47.102;15.440;2023-03-14T04:59:58;95718.47;;;4.83;100.00
3668;BME280;24099;47.102;15.440;2023-03-14T05:02:48;95728.13;;;5.04;100.00
3668;BME280;24099;47.102;15.440;2023-03-14T05:05:43;95723.84;;;4.97;100.00
3668;BME280;24099;47.102;15.440;2023-03-14T05:08:38;95711.22;;;5.15;100.00
3668;BME280;24099;47.102;15.440;2023-03-14T05:11:27;95710.41;;;5.14;100.00
3668;BME280;24099;47.102;15.440;2023-03-14T05:14:15;95691.34;;;5.14;100.00
3668;BME280;24099;47.102;15.440;2023-03-14T05:16:55;95691.63;;;5.19;100.00
3668;BME280;24099;47.102;15.440;2023-03-14T05:19:51;95720.66;;;5.16;100.00
3668;BME280;24099;47.102;15.440;2023-03-14T05:22:56;95709.03;;;5.54;100.00
3668;BME280;24099;47.102;15.440;2023-03-14T05:25:43;95694.44;;;5.39;100.00
3668;BME280;24099;47.102;15.440;2023-03-14T05:28:31;95710.72;;;5.26;100.00
3668;BME280;24099;47.102;15.440;2023-03-14T05:31:20;95700.69;;;5.44;100.00
3668;BME280;24099;47.102;15.440;2023-03-14T05:34:16;95674.72;;;5.36;100.00
3668;BME280;24099;47.102;15.440;2023-03-14T05:37:07;95673.16;;;5.42;100.00
3668;BME280;24099;47.102;15.440;2023-03-14T05:40:06;95683.47;;;5.50;100.00
3668;BME280;24099;47.102;15.440;2023-03-14T05:42:49;95680.75;;;5.58;100.00
3668;BME280;24099;47.102;15.440;2023-03-14T05:45:33;95668.19;;;5.68;100.00
3668;BME280;24099;47.102;15.440;2023-03-14T05:48:15;95675.31;;;5.60;100.00
3668;BME280;24099;47.102;15.440;2023-03-14T05:51:13;95659.97;;;5.71;100.00
3668;BME280;24099;47.102;15.440;2023-03-14T05:54:07;95653.50;;;5.67;100.00
3668;BME280;24099;47.102;15.440;2023-03-14T05:57:09;95661.53;;;5.66;100.00
3668;BME280;24099;47.102;15.440;2023-03-14T05:59:56;95672.28;;;5.77;100.00
3668;BME280;24099;47.102;15.440;2023-03-14T06:02:41;95649.22;;;6.09;100.00
3668;BME280;24099;47.102;15.440;2023-03-14T06:05:20;95669.41;;;5.94;100.00
3668;BME280;24099;47.102;15.440;2023-03-14T06:07:50;95673.72;;;6.08;100.00
3668;BME280;24099;47.102;15.440;2023-03-14T06:10:20;95667.34;;;6.51;100.00
3668;BME280;24099;47.102;15.440;2023-03-14T06:12:54;95649.63;;;6.47;100.00
3668;BME280;24099;47.102;15.440;2023-03-14T06:15:22;95647.59;;;6.42;100.00
3668;BME280;24099;47.102;15.440;2023-03-14T06:17:54;95646.03;;;6.48;100.00
3668;BME280;24099;47.102;15.440;2023-03-14T06:20:26;95640.06;;;6.67;100.00
3668;BME280;24099;47.102;15.440;2023-03-14T06:22:54;95654.38;;;6.71;100.00
3668;BME280;24099;47.102;15.440;2023-03-14T06:25:22;95655.25;;;6.91;100.00
3668;BME280;24099;47.102;15.440;2023-03-14T06:27:52;95668.06;;;6.80;100.00
3668;BME280;24099;47.102;15.440;2023-03-14T06:30:26;95657.63;;;6.80;100.00
3668;BME280;24099;47.102;15.440;2023-03-14T06:32:58;95672.44;;;6.66;100.00
3668;BME280;24099;47.102;15.440;2023-03-14T06:35:27;95663.44;;;6.75;100.00
3668;BME280;24099;47.102;15.440;2023-03-14T06:37:58;95653.66;;;6.90;100.00
3668;BME280;24099;47.102;15.440;2023-03-14T06:40:26;95658.66;;;6.85;100.00
3668;BME280;24099;47.102;15.440;2023-03-14T06:43:05;95638.41;;;7.07;100.00
3668;BME280;24099;47.102;15.440;2023-03-14T06:45:34;95655.13;;;7.13;100.00
3668;BME280;24099;47.102;15.440;2023-03-14T06:48:03;95669.63;;;7.29;100.00
3668;BME280;24099;47.102;15.440;2023-03-14T06:50:43;95668.66;;;7.36;100.00
3668;BME280;24099;47.102;15.440;2023-03-14T06:53:12;95669.84;;;7.40;100.00
3668;BME280;24099;47.102;15.440;2023-03-14T06:55:42;95672.50;;;7.53;100.00
3668;BME280;24099;47.102;15.440;2023-03-14T06:58:22;95657.22;;;7.77;100.00
3668;BME280;24099;47.102;15.440;2023-03-14T07:00:52;95628.16;;;8.11;100.00
3668;BME280;24099;47.102;15.440;2023-03-14T07:03:26;95607.59;;;8.15;100.00
3668;BME280;24099;47.102;15.440;2023-03-14T07:05:57;95590.13;;;8.60;100.00
3668;BME280;24099;47.102;15.440;2023-03-14T07:08:26;95623.34;;;8.79;100.00
3668;BME280;24099;47.102;15.440;2023-03-14T07:10:56;95646.41;;;9.15;100.00
3668;BME280;24099;47.102;15.440;2023-03-14T07:13:27;95644.19;;;9.44;100.00
3668;BME280;24099;47.102;15.440;2023-03-14T07:16:03;95616.53;;;9.10;100.00
3668;BME280;24099;47.102;15.440;2023-03-14T07:18:32;95618.66;;;8.94;100.00
3668;BME280;24099;47.102;15.440;2023-03-14T07:21:09;95619.25;;;8.96;100.00
3668;BME280;24099;47.102;15.440;2023-03-14T07:23:38;95632.28;;;9.10;100.00
3668;BME280;24099;47.102;15.440;2023-03-14T07:26:07;95647.63;;;9.13;100.00
3668;BME280;24099;47.102;15.440;2023-03-14T07:28:46;95633.00;;;9.55;100.00
3668;BME280;24099;47.102;15.440;2023-03-14T07:31:18;95618.72;;;9.44;100.00
3668;BME280;24099;47.102;15.440;2023-03-14T07:33:55;95631.78;;;9.57;100.00
3668;BME280;24099;47.102;15.440;2023-03-14T07:36:36;95625.66;;;9.63;100.00
3668;BME280;24099;47.102;15.440;2023-03-14T07:39:05;95630.97;;;9.82;100.00
3668;BME280;24099;47.102;15.440;2023-03-14T07:41:54;95614.09;;;10.57;100.00
3668;BME280;24099;47.102;15.440;2023-03-14T07:44:29;95620.13;;;10.40;100.00
3668;BME280;24099;47.102;15.440;2023-03-14T07:46:57;95620.38;;;10.38;100.00
3668;BME280;24099;47.102;15.440;2023-03-14T07:49:32;95613.13;;;10.70;100.00
3668;BME280;24099;47.102;15.440;2023-03-14T07:52:01;95585.47;;;10.97;100.00
3668;BME280;24099;47.102;15.440;2023-03-14T07:54:33;95579.91;;;11.59;100.00
3668;BME280;24099;47.102;15.440;2023-03-14T07:57:01;95564.69;;;11.84;100.00
3668;BME280;24099;47.102;15.440;2023-03-14T07:59:33;95547.28;;;11.83;100.00
3668;BME280;24099;47.102;15.440;2023-03-14T08:02:02;95563.28;;;11.58;100.00
3668;BME280;24099;47.102;15.440;2023-03-14T08:04:33;95563.25;;;11.47;100.00
3668;BME280;24099;47.102;15.440;2023-03-14T08:07:01;95551.69;;;11.59;100.00
3668;BME280;24099;47.102;15.440;2023-03-14T08:09:31;95547.38;;;12.00;100.00
3668;BME280;24099;47.102;15.440;2023-03-14T08:12:18;95540.84;;;12.02;100.00
3668;BME280;24099;47.102;15.440;2023-03-14T08:14:47;95515.41;;;12.48;100.00
3668;BME280;24099;47.102;15.440;2023-03-14T08:17:22;95522.00;;;12.62;100.00
3668;BME280;24099;47.102;15.440;2023-03-14T08:19:50;95519.19;;;12.81;100.00
3668;BME280;24099;47.102;15.440;2023-03-14T08:22:18;95503.22;;;12.87;100.00
3668;BME280;24099;47.102;15.440;2023-03-14T08:24:46;95494.84;;;13.07;100.00
3668;BME280;24099;47.102;15.440;2023-03-14T08:27:13;95489.56;;;13.07;100.00
3668;BME280;24099;47.102;15.440;2023-03-14T08:29:42;95485.16;;;12.96;100.00
3668;BME280;24099;47.102;15.440;2023-03-14T08:32:11;95498.41;;;12.84;100.00
3668;BME280;24099;47.102;15.440;2023-03-14T08:34:40;95491.00;;;12.98;100.00
3668;BME280;24099;47.102;15.440;2023-03-14T08:37:08;95504.84;;;13.05;100.00
3668;BME280;24099;47.102;15.440;2023-03-14T08:39:37;95508.34;;;12.94;100.00
3668;BME280;24099;47.102;15.440;2023-03-14T08:42:05;95512.75;;;12.88;100.00
3668;BME280;24099;47.102;15.440;2023-03-14T08:44:35;95512.03;;;12.93;100.00
3668;BME280;24099;47.102;15.440;2023-03-14T08:47:04;95490.22;;;13.14;100.00
3668;BME280;24099;47.102;15.440;2023-03-14T08:49:33;95495.84;;;13.18;100.00
3668;BME280;24099;47.102;15.440;2023-03-14T08:52:04;95491.69;;;13.22;100.00
3668;BME280;24099;47.102;15.440;2023-03-14T08:54:34;95495.34;;;13.21;100.00
3668;BME280;24099;47.102;15.440;2023-03-14T08:57:02;95502.50;;;13.54;100.00
3668;BME280;24099;47.102;15.440;2023-03-14T08:59:30;95505.13;;;13.70;100.00
3668;BME280;24099;47.102;15.440;2023-03-14T09:02:02;95502.81;;;13.74;100.00
3668;BME280;24099;47.102;15.440;2023-03-14T09:04:32;95507.38;;;13.78;100.00
3668;BME280;24099;47.102;15.440;2023-03-14T09:07:00;95501.34;;;13.83;100.00
3668;BME280;24099;47.102;15.440;2023-03-14T09:09:29;95494.41;;;13.99;100.00
3668;BME280;24099;47.102;15.440;2023-03-14T09:11:58;95494.88;;;14.12;100.00
3668;BME280;24099;47.102;15.440;2023-03-14T09:14:28;95493.75;;;14.08;100.00
3668;BME280;24099;47.102;15.440;2023-03-14T09:16:57;95477.28;;;14.45;100.00
3668;BME280;24099;47.102;15.440;2023-03-14T09:19:25;95475.13;;;14.64;100.00
3668;BME280;24099;47.102;15.440;2023-03-14T09:21:55;95480.31;;;14.54;100.00
3668;BME280;24099;47.102;15.440;2023-03-14T09:24:23;95477.09;;;14.52;100.00
3668;BME280;24099;47.102;15.440;2023-03-14T09:26:54;95473.16;;;14.54;100.00
3668;BME280;24099;47.102;15.440;2023-03-14T09:29:28;95485.41;;;14.60;100.00
3668;BME280;24099;47.102;15.440;2023-03-14T09:31:55;95481.75;;;14.66;100.00
3668;BME280;24099;47.102;15.440;2023-03-14T09:34:27;95487.44;;;14.53;100.00
3668;BME280;24099;47.102;15.440;2023-03-14T09:37:02;95481.22;;;14.42;100.00
3668;BME280;24099;47.102;15.440;2023-03-14T09:39:31;95487.56;;;14.41;100.00
3668;BME280;24099;47.102;15.440;2023-03-14T09:42:11;95479.19;;;14.28;100.00
3668;BME280;24099;47.102;15.440;2023-03-14T09:44:49;95475.91;;;14.21;100.00
3668;BME280;24099;47.102;15.440;2023-03-14T09:47:21;95478.19;;;14.34;100.00
3668;BME280;24099;47.102;15.440;2023-03-14T09:49:59;95484.28;;;14.12;100.00
3668;BME280;24099;47.102;15.440;2023-03-14T09:52:31;95495.34;;;14.09;100.00
3668;BME280;24099;47.102;15.440;2023-03-14T09:55:02;95494.25;;;14.05;100.00
3668;BME280;24099;47.102;15.440;2023-03-14T09:57:33;95490.72;;;14.00;100.00
3668;BME280;24099;47.102;15.440;2023-03-14T10:00:06;95496.81;;;14.00;100.00
3668;BME280;24099;47.102;15.440;2023-03-14T10:02:51;95487.28;;;13.99;100.00
3668;BME280;24099;47.102;15.440;2023-03-14T10:05:24;95479.81;;;13.74;100.00
3668;BME280;24099;47.102;15.440;2023-03-14T10:07:55;95483.91;;;13.65;100.00
3668;BME280;24099;47.102;15.440;2023-03-14T10:10:25;95504.34;;;13.70;100.00
3668;BME280;24099;47.102;15.440;2023-03-14T10:12:58;95496.16;;;13.71;100.00
3668;BME280;24099;47.102;15.440;2023-03-14T10:15:27;95489.50;;;13.69;100.00
3668;BME280;24099;47.102;15.440;2023-03-14T10:18:00;95472.25;;;13.83;100.00
3668;BME280;24099;47.102;15.440;2023-03-14T10:20:34;95471.97;;;14.01;100.00
3668;BME280;24099;47.102;15.440;2023-03-14T10:23:18;95474.03;;;14.16;100.00
3668;BME280;24099;47.102;15.440;2023-03-14T10:26:03;95453.81;;;14.32;100.00
3668;BME280;24099;47.102;15.440;2023-03-14T10:28:33;95433.25;;;14.39;100.00
3668;BME280;24099;47.102;15.440;2023-03-14T10:31:01;95417.81;;;14.53;100.00
3668;BME280;24099;47.102;15.440;2023-03-14T10:33:32;95420.31;;;14.64;100.00
3668;BME280;24099;47.102;15.440;2023-03-14T10:36:01;95438.72;;;14.76;100.00
3668;BME280;24099;47.102;15.440;2023-03-14T10:38:32;95446.59;;;14.98;100.00
3668;BME280;24099;47.102;15.440;2023-03-14T10:41:01;95425.28;;;15.20;100.00
3668;BME280;24099;47.102;15.440;2023-03-14T10:43:32;95429.69;;;15.41;100.00
3668;BME280;24099;47.102;15.440;2023-03-14T10:46:05;95416.88;;;15.28;100.00
3668;BME280;24099;47.102;15.440;2023-03-14T10:48:55;95411.50;;;15.18;100.00
3668;BME280;24099;47.102;15.440;2023-03-14T10:51:27;95409.13;;;15.16;100.00
3668;BME280;24099;47.102;15.440;2023-03-14T10:54:01;95427.28;;;15.02;100.00
3668;BME280;24099;47.102;15.440;2023-03-14T10:56:34;95432.81;;;15.01;100.00
3668;BME280;24099;47.102;15.440;2023-03-14T10:59:06;95459.78;;;14.93;100.00
3668;BME280;24099;47.102;15.440;2023-03-14T11:01:40;95448.34;;;14.87;100.00
3668;BME280;24099;47.102;15.440;2023-03-14T11:04:18;95439.34;;;14.88;100.00
3668;BME280;24099;47.102;15.440;2023-03-14T11:06:58;95446.00;;;14.91;100.00
3668;BME280;24099;47.102;15.440;2023-03-14T11:09:33;95444.56;;;14.78;100.00
3668;BME280;24099;47.102;15.440;2023-03-14T11:12:13;95440.13;;;14.89;100.00
3668;BME280;24099;47.102;15.440;2023-03-14T11:14:54;95453.47;;;14.99;100.00
3668;BME280;24099;47.102;15.440;2023-03-14T11:17:30;95466.22;;;15.02;100.00
3668;BME280;24099;47.102;15.440;2023-03-14T11:20:17;95467.00;;;15.02;97.19
3668;BME280;24099;47.102;15.440;2023-03-14T11:22:55;95478.38;;;14.98;95.04
3668;BME280;24099;47.102;15.440;2023-03-14T11:25:32;95476.25;;;15.00;90.09
3668;BME280;24099;47.102;15.440;2023-03-14T11:28:09;95481.38;;;15.06;94.67
3668;BME280;24099;47.102;15.440;2023-03-14T11:30:45;95480.31;;;15.07;89.99
3668;BME280;24099;47.102;15.440;2023-03-14T11:33:20;95462.44;;;15.25;88.27
3668;BME280;24099;47.102;15.440;2023-03-14T11:35:55;95460.63;;;15.30;85.75
3668;BME280;24099;47.102;15.440;2023-03-14T11:38:31;95439.75;;;15.39;86.30
3668;BME280;24099;47.102;15.440;2023-03-14T11:41:02;95440.06;;;15.47;84.32
3668;BME280;24099;47.102;15.440;2023-03-14T11:43:34;95437.47;;;15.52;83.14
3668;BME280;24099;47.102;15.440;2023-03-14T11:46:09;95441.09;;;15.41;84.62
3668;BME280;24099;47.102;15.440;2023-03-14T11:48:41;95458.22;;;15.29;84.99
3668;BME280;24099;47.102;15.440;2023-03-14T11:51:17;95452.81;;;15.13;83.59
3668;BME280;24099;47.102;15.440;2023-03-14T11:53:58;95457.25;;;15.08;85.88
3668;BME280;24099;47.102;15.440;2023-03-14T11:56:33;95449.97;;;15.25;83.52
3668;BME280;24099;47.102;15.440;2023-03-14T11:59:05;95455.22;;;15.15;83.93
3668;BME280;24099;47.102;15.440;2023-03-14T12:01:52;95457.31;;;15.13;82.86
3668;BME280;24099;47.102;15.440;2023-03-14T12:04:29;95455.22;;;15.15;82.91
3668;BME280;24099;47.102;15.440;2023-03-14T12:07:03;95459.22;;;15.23;83.25
3668;BME280;24099;47.102;15.440;2023-03-14T12:09:37;95466.63;;;15.21;82.66
3668;BME280;24099;47.102;15.440;2023-03-14T12:12:10;95467.00;;;15.29;81.49
3668;BME280;24099;47.102;15.440;2023-03-14T12:14:45;95449.50;;;15.65;81.89
3668;BME280;24099;47.102;15.440;2023-03-14T12:17:21;95443.44;;;15.70;80.10
3668;BME280;24099;47.102;15.440;2023-03-14T12:20:15;95458.03;;;15.72;78.99
3668;BME280;24099;47.102;15.440;2023-03-14T12:22:45;95456.25;;;15.46;74.68
3668;BME280;24099;47.102;15.440;2023-03-14T12:25:16;95434.88;;;15.58;76.23
3668;BME280;24099;47.102;15.440;2023-03-14T12:28:04;95441.44;;;15.50;77.52
3668;BME280;24099;47.102;15.440;2023-03-14T12:30:34;95449.41;;;15.55;76.41
3668;BME280;24099;47.102;15.440;2023-03-14T12:33:26;95436.38;;;15.48;76.02
3668;BME280;24099;47.102;15.440;2023-03-14T12:38:58;95427.63;;;15.11;78.20
3668;BME280;24099;47.102;15.440;2023-03-14T12:41:35;95435.88;;;15.20;77.72
3668;BME280;24099;47.102;15.440;2023-03-14T12:56:28;95432.13;;;14.83;79.53
3668;BME280;24099;47.102;15.440;2023-03-14T12:59:29;95432.94;;;14.84;79.76
3668;BME280;24099;47.102;15.440;2023-03-14T13:02:02;95426.03;;;14.78;82.66
3668;BME280;24099;47.102;15.440;2023-03-14T13:04:33;95436.06;;;14.76;80.40
3668;BME280;24099;47.102;15.440;2023-03-14T13:07:04;95435.09;;;14.87;78.73
3668;BME280;24099;47.102;15.440;2023-03-14T13:10:00;95434.22;;;14.81;79.94
3668;BME280;24099;47.102;15.440;2023-03-14T13:12:34;95419.63;;;14.79;80.09
3668;BME280;24099;47.102;15.440;2023-03-14T13:15:17;95426.53;;;14.80;78.69
3668;BME280;24099;47.102;15.440;2023-03-14T13:17:47;95436.56;;;14.73;80.82
3668;BME280;24099;47.102;15.440;2023-03-14T13:20:19;95442.53;;;14.63;80.43
3668;BME280;24099;47.102;15.440;2023-03-14T13:22:50;95436.84;;;14.76;80.51
3668;BME280;24099;47.102;15.440;2023-03-14T13:25:18;95446.84;;;14.69;80.26
3668;BME280;24099;47.102;15.440;2023-03-14T13:27:52;95444.44;;;14.68;83.73
3668;BME280;24099;47.102;15.440;2023-03-14T13:30:25;95447.78;;;14.36;84.42
3668;BME280;24099;47.102;15.440;2023-03-14T13:32:55;95445.22;;;14.41;83.49
3668;BME280;24099;47.102;15.440;2023-03-14T13:35:27;95442.75;;;14.35;84.63
3668;BME280;24099;47.102;15.440;2023-03-14T13:37:59;95445.84;;;14.48;85.73
3668;BME280;24099;47.102;15.440;2023-03-14T13:40:30;95449.50;;;14.26;88.44
3668;BME280;24099;47.102;15.440;2023-03-14T13:43:04;95454.44;;;14.17;89.71
3668;BME280;24099;47.102;15.440;2023-03-14T13:45:44;95452.84;;;14.16;88.58
3668;BME280;24099;47.102;15.440;2023-03-14T13:48:14;95437.94;;;14.10;89.04